Latest Weather Observations for Edinburgh

IDS60901

Issued at 8:25 pm CST Friday 18 April 2014 (issued every 10 minutes, with the page automatically refreshed every 10 minutes)

About weather observations | Map of Adelaide area stations | Latest observations for Adelaide area | Other Formats
Station Details ID: 023083 Name: EDINBURGH RAAF Lat: -34.71 Lon: 138.62 Height: 16.54 m
Data from the previous 72 hours. | See also: Recent months at Edinburgh
Date/Time
CST
Tmp

°C
App
Tmp
°C
Dew
Point
°C
Rel
Hum
%
Delta-T

°C
Wind Press
QNH
hPa
Press
MSL
hPa
Rain
since
9 am
mm
Dir
 
Spd
km/h
Gust
km/h
Spd
kts
Gust
kts
18/08:00pm 14.5 11.7 5.3 54 4.3 SSE 9 15 5 8 1023.3 - 0.0
18/07:30pm 14.7 11.7 5.8 55 4.2 SSE 11 15 6 8 1023.1 - 0.0
18/07:00pm 15.3 12.3 6.1 54 4.4 SE 11 17 6 9 1023.0 - 0.0
18/06:30pm 15.9 12.5 6.1 52 4.7 SSE 13 17 7 9 1022.7 - 0.0
18/06:00pm 16.8 12.7 6.3 50 5.1 SSE 17 28 9 15 1022.5 1022.4 0.0
18/05:30pm 17.6 13.3 6.8 49 5.4 S 19 28 10 15 1022.1 - 0.0
18/05:00pm 18.2 12.8 7.9 51 5.3 SSW 26 33 14 18 1021.6 - 0.0
18/04:30pm 18.8 12.2 7.9 49 5.6 SSW 32 39 17 21 1021.5 - 0.0
18/04:00pm 19.1 12.6 8.1 49 5.7 SSW 32 43 17 23 1021.3 - 0.0
18/03:30pm 19.7 12.3 6.8 43 6.5 SW 35 43 19 23 1021.2 - 0.0
18/03:00pm 19.6 12.0 7.4 45 6.2 SW 37 44 20 24 1021.0 1020.9 0.0
18/02:30pm 19.9 13.2 7.3 44 6.4 SW 32 39 17 21 1021.1 - 0.0
18/02:00pm 19.6 13.7 7.7 46 6.1 SW 28 39 15 21 1021.1 - 0.0
18/01:30pm 20.0 14.0 8.7 48 5.9 SW 30 37 16 20 1021.0 - 0.0
18/01:00pm 19.9 14.7 8.9 49 5.8 SW 26 35 14 19 1021.3 - 0.0
18/12:30pm 20.7 15.2 10.5 52 5.5 SW 30 39 16 21 1021.5 - 0.0
18/12:00pm 19.5 14.6 11.3 59 4.5 SW 28 39 15 21 1021.8 1021.7 0.0
18/11:30am 19.6 14.9 10.6 56 4.9 SSW 26 33 14 18 1021.9 - 0.0
18/11:00am 19.5 14.5 11.0 58 4.6 SW 28 35 15 19 1021.9 - 0.0
18/10:30am 19.5 14.9 12.3 63 4.0 SSW 28 37 15 20 1022.0 - 0.0
18/10:00am 18.6 16.0 13.2 71 3.1 S 19 28 10 15 1022.0 - 0.0
18/09:30am 17.5 17.0 15.0 85 1.5 S 11 15 6 8 1021.9 - 0.0
18/09:00am 16.1 16.2 14.5 90 0.9 S 7 9 4 5 1021.8 1021.7 2.4
18/08:30am 15.7 15.1 14.6 93 0.6 SSW 11 13 6 7 1021.6 - 2.4
18/08:19am 15.4 13.9 14.3 93 0.6 SSW 15 19 8 10 1021.3 - 2.4
18/08:06am 15.4 11.4 14.1 92 0.7 SSW 28 46 15 25 1021.1 - 2.2
18/08:00am 15.6 10.5 13.8 89 1.0 SSW 33 46 18 25 1021.0 - 2.0
18/07:57am 15.9 9.8 13.0 83 1.6 SW 37 46 20 25 1020.9 - 0.6
18/07:56am 16.8 10.8 13.3 80 2.0 SW 37 46 20 25 1020.9 - 0.0
18/07:30am 18.1 15.8 14.0 77 2.3 W 19 22 10 12 1020.3 - 0.0
18/07:00am 17.7 15.9 13.4 76 2.4 W 15 17 8 9 1020.1 - 0.0
18/06:30am 17.7 14.6 13.4 76 2.4 WSW 22 28 12 15 1020.0 - 0.0
18/06:00am 17.6 14.5 13.3 76 2.4 W 22 28 12 15 1020.0 1019.9 0.0
18/05:30am 17.3 14.6 13.4 78 2.2 WSW 20 28 11 15 1020.0 - 0.0
18/05:00am 16.4 13.7 12.8 79 2.0 WSW 19 20 10 11 1019.8 - 0.0
18/04:30am 16.2 13.8 12.7 80 1.9 WSW 17 24 9 13 1019.6 - 0.0
18/04:00am 16.9 13.7 13.0 78 2.2 WSW 22 30 12 16 1019.5 - 0.0
18/03:30am 17.0 12.7 13.1 78 2.2 WSW 28 35 15 19 1019.4 - 0.0
18/03:00am 17.1 13.6 13.4 79 2.1 WSW 24 30 13 16 1019.4 1019.3 0.0
18/02:30am 17.1 13.9 13.0 77 2.3 WSW 22 30 12 16 1019.3 - 0.0
18/02:00am 17.6 14.0 14.1 80 2.0 WSW 26 33 14 18 1019.4 - 0.0
18/01:30am 13.7 12.9 11.0 84 1.4 N 6 9 3 5 1019.5 - 0.0
18/01:00am 14.6 13.8 11.6 82 1.6 NE 7 9 4 5 1019.4 - 0.0
18/12:30am 14.2 13.2 11.0 81 1.7 NNE 7 9 4 5 1019.2 - 0.0
18/12:00am 15.3 14.5 11.7 79 1.9 NE 7 9 4 5 1019.6 1019.5 0.0
 
Date/Time
CST
Tmp

°C
App
Tmp
°C
Dew
Point
°C
Rel
Hum
%
Delta-T

°C
Wind Press
QNH
hPa
Press
MSL
hPa
Rain
since
9 am
mm
Dir
 
Spd
km/h
Gust
km/h
Spd
kts
Gust
kts
17/11:30pm 15.7 15.0 11.9 78 2.1 NNE 7 11 4 6 1019.7 - 0.0
17/11:00pm 15.2 14.6 11.8 80 1.8 N 6 6 3 3 1020.1 - 0.0
17/10:30pm 16.2 16.8 11.8 75 2.4 CALM 0 0 0 0 1020.2 - 0.0
17/10:00pm 16.5 16.0 11.9 74 2.5 NE 6 7 3 4 1020.3 - 0.0
17/09:30pm 16.3 15.6 11.9 75 2.4 NE 7 7 4 4 1020.0 - 0.0
17/09:00pm 16.1 15.6 11.9 76 2.3 NNE 6 7 3 4 1020.0 1019.9 0.0
17/08:30pm 16.5 15.8 11.4 72 2.8 ENE 6 7 3 4 1019.7 - 0.0
17/08:00pm 17.1 16.5 11.8 71 2.9 E 6 7 3 4 1019.5 - 0.0
17/07:30pm 17.9 17.4 12.1 69 3.2 E 6 6 3 3 1019.3 - 0.0
17/07:00pm 19.7 19.1 11.7 60 4.4 ESE 6 6 3 3 1019.3 - 0.0
17/06:30pm 20.0 19.2 11.7 59 4.6 SSE 7 9 4 5 1019.1 - 0.0
17/06:00pm 20.0 19.2 11.7 59 4.6 SW 7 9 4 5 1019.2 1019.1 0.0
17/05:30pm 20.9 19.8 11.8 56 5.1 SW 9 11 5 6 1019.0 - 0.0
17/05:00pm 22.1 20.2 11.8 52 5.8 WSW 13 19 7 10 1019.0 - 0.0
17/04:30pm 22.6 20.1 11.0 48 6.4 WSW 15 20 8 11 1018.9 - 0.0
17/04:00pm 23.2 20.4 11.3 47 6.7 WSW 17 22 9 12 1018.9 - 0.0
17/03:30pm 23.2 20.5 10.3 44 7.1 WSW 15 20 8 11 1019.2 - 0.0
17/03:00pm 23.5 21.1 10.2 43 7.3 W 13 19 7 10 1019.4 1019.3 0.0
17/02:30pm 23.1 20.2 9.5 42 7.4 NW 15 20 8 11 1019.6 - 0.0
17/02:00pm 22.7 20.2 9.8 44 7.0 NW 13 19 7 10 1019.9 - 0.0
17/01:30pm 22.5 20.6 11.9 51 6.0 WSW 13 19 7 10 1020.1 - 0.0
17/01:00pm 22.3 20.2 12.3 53 5.7 WSW 15 19 8 10 1020.5 - 0.0
17/12:30pm 21.4 19.6 12.0 55 5.3 SSW 13 19 7 10 1021.0 - 0.0
17/12:00pm 22.0 20.9 12.0 53 5.6 SSW 9 15 5 8 1021.3 1021.2 0.0
17/11:30am 21.2 20.4 11.8 55 5.2 SSW 7 11 4 6 1021.6 - 0.0
17/11:00am 21.5 21.1 12.4 56 5.1 WSW 6 9 3 5 1021.9 - 0.0
17/10:30am 20.6 20.1 12.1 58 4.8 ENE 6 9 3 5 1021.7 - 0.0
17/10:00am 19.2 18.1 12.0 63 4.0 N 9 15 5 8 1021.8 - 0.0
17/09:30am 18.1 16.0 11.0 63 3.8 NNE 13 17 7 9 1021.9 - 0.0
17/09:00am 17.0 13.8 9.9 63 3.7 NE 17 19 9 10 1021.9 1021.8 0.0
17/08:30am 16.2 13.0 10.1 67 3.2 NE 17 19 9 10 1021.8 - 0.0
17/08:00am 13.9 11.7 9.5 75 2.3 NE 11 13 6 7 1021.7 - 0.0
17/07:30am 11.6 9.9 8.3 80 1.6 NE 7 11 4 6 1021.5 - 0.0
17/07:00am 10.3 7.7 7.9 85 1.2 NE 11 13 6 7 1021.3 - 0.0
17/06:30am 10.1 7.5 7.7 85 1.2 NE 11 13 6 7 1021.1 - 0.0
17/06:00am 10.2 7.9 7.6 84 1.2 NE 9 11 5 6 1020.9 1020.8 0.0
17/05:30am 9.8 7.2 7.6 86 1.1 NE 11 13 6 7 1020.7 - 0.0
17/05:00am 10.3 7.3 7.7 84 1.2 NE 13 13 7 7 1020.6 - 0.0
17/04:30am 10.4 7.9 8.0 85 1.2 NE 11 11 6 6 1020.5 - 0.0
17/04:00am 10.3 7.7 7.9 85 1.2 NE 11 13 6 7 1020.3 - 0.0
17/03:30am 10.8 8.6 8.0 83 1.4 ENE 9 11 5 6 1020.2 - 0.0
17/03:00am 10.9 8.4 8.3 84 1.3 ENE 11 13 6 7 1020.2 1020.1 0.0
17/02:30am 10.4 8.6 8.0 85 1.2 NE 7 9 4 5 1020.4 - 0.0
17/02:00am 10.8 8.7 8.2 84 1.3 NE 9 11 5 6 1020.6 - 0.0
17/01:30am 10.7 8.6 8.1 84 1.3 NNE 9 9 5 5 1020.7 - 0.0
17/01:00am 11.1 9.4 8.5 84 1.3 NNE 7 9 4 5 1020.6 - 0.0
17/12:30am 11.5 9.8 8.5 82 1.5 NE 7 9 4 5 1020.6 - 0.0
17/12:00am 12.5 10.5 8.6 77 1.9 NE 9 11 5 6 1020.5 1020.4 0.0
 
Date/Time
CST
Tmp

°C
App
Tmp
°C
Dew
Point
°C
Rel
Hum
%
Delta-T

°C
Wind Press
QNH
hPa
Press
MSL
hPa
Rain
since
9 am
mm
Dir
 
Spd
km/h
Gust
km/h
Spd
kts
Gust
kts
16/11:30pm 12.8 11.2 8.9 77 2.0 ENE 7 9 4 5 1020.6 - 0.0
16/11:00pm 13.0 12.1 9.1 77 2.0 NNE 4 6 2 3 1020.7 - 0.0
16/10:30pm 12.3 10.7 8.6 78 1.8 NNW 7 9 4 5 1020.8 - 0.0
16/10:00pm 13.1 11.7 8.8 75 2.2 NE 6 7 3 4 1020.5 - 0.0
16/09:30pm 13.5 13.2 8.8 73 2.4 CALM 0 0 0 0 1020.4 - 0.0
16/09:00pm 14.8 14.5 8.7 67 3.1 CALM 0 0 0 0 1020.4 1020.3 0.0
16/08:30pm 15.5 15.3 9.2 66 3.2 CALM 0 0 0 0 1020.2 - 0.0
16/08:00pm 15.7 15.5 9.1 65 3.4 CALM 0 0 0 0 1019.9 - 0.0
16/07:30pm 15.8 15.5 8.8 63 3.6 CALM 0 0 0 0 1019.7 - 0.0
16/07:00pm 16.4 16.0 8.4 59 4.1 CALM 0 0 0 0 1019.6 - 0.0
16/06:30pm 18.8 17.2 8.2 50 5.5 SSW 6 7 3 4 1019.5 - 0.0
16/06:00pm 18.9 17.2 8.3 50 5.5 WSW 7 9 4 5 1019.2 1019.1 0.0
16/05:30pm 20.9 19.2 8.2 44 6.6 SW 7 9 4 5 1019.1 - 0.0
16/05:00pm 21.1 18.4 7.3 41 7.1 WSW 11 15 6 8 1019.1 - 0.0
16/04:30pm 21.6 18.0 6.7 38 7.6 WSW 15 20 8 11 1018.9 - 0.0
16/04:00pm 22.9 19.9 7.8 38 7.9 SW 13 20 7 11 1018.7 - 0.0
16/03:30pm 22.9 19.9 7.8 38 7.9 SSW 13 17 7 9 1018.7 - 0.0
16/03:00pm 22.9 18.6 7.0 36 8.2 W 19 26 10 14 1019.2 1019.1 0.0
16/02:30pm 22.8 18.3 6.1 34 8.5 W 19 24 10 13 1019.2 - 0.0
16/02:00pm 23.0 18.6 6.7 35 8.4 WSW 19 28 10 15 1019.0 - 0.0
16/01:30pm 22.9 18.6 7.0 36 8.2 W 19 30 10 16 1018.9 - 0.0
16/01:00pm 22.8 18.4 7.4 37 8.0 W 20 28 11 15 1019.2 - 0.0
16/12:30pm 22.4 18.7 7.8 39 7.6 WSW 17 24 9 13 1019.6 - 0.0
16/12:00pm 22.0 18.8 7.0 38 7.7 W 13 20 7 11 1019.8 1019.7 0.0
16/11:30am 21.3 18.4 8.2 43 6.9 WNW 13 20 7 11 1020.3 - 0.0
16/11:00am 20.5 18.1 8.5 46 6.3 WNW 11 20 6 11 1021.1 - 0.0
16/10:30am 19.9 18.4 9.2 50 5.7 NW 7 13 4 7 1021.1 - 0.0
16/10:00am 19.1 17.3 9.3 53 5.2 NNE 9 13 5 7 1020.9 - 0.0
16/09:30am 17.9 15.0 9.5 58 4.4 NNE 15 19 8 10 1020.7 - 0.0
16/09:00am 16.7 13.2 8.9 60 4.0 NNE 17 22 9 12 1021.0 1020.9 0.0
16/08:30am 14.7 12.7 10.1 74 2.4 NNE 11 15 6 8 1021.3 - 0.0
16/08:00am 12.4 10.6 9.6 83 1.4 NNE 9 11 5 6 1021.1 - 0.0
16/07:30am 11.2 8.9 8.9 86 1.1 NE 11 13 6 7 1020.7 - 0.0
16/07:00am 9.8 7.6 7.9 88 0.9 NE 9 13 5 7 1020.7 - 0.0
16/06:30am 9.7 7.5 8.0 89 0.8 NE 9 9 5 5 1020.9 - 0.0
16/06:00am 9.8 7.7 8.4 91 0.7 NE 9 13 5 7 1020.7 1020.6 0.0
16/05:30am 9.2 6.2 7.6 90 0.8 NNE 13 15 7 8 1020.4 - 0.0
16/05:00am 9.0 6.4 7.8 92 0.6 NNE 11 13 6 7 1020.3 - 0.0
16/04:30am 9.4 7.2 7.8 90 0.8 NE 9 11 5 6 1020.2 - 0.0
16/04:00am 9.4 6.8 7.8 90 0.8 NE 11 13 6 7 1020.1 - 0.0
16/03:30am 9.2 7.3 7.6 90 0.8 NNE 7 7 4 4 1020.4 - 0.0
16/03:00am 9.3 7.6 7.4 88 0.9 NNW 6 7 3 4 1020.8 1020.7 0.0
16/02:30am 9.5 8.9 7.4 87 1.0 CALM 0 0 0 0 1020.8 - 0.0
16/02:00am 10.1 9.7 8.2 88 0.9 CALM 0 0 0 0 1021.1 - 0.0
16/01:30am 9.7 7.4 7.5 86 1.0 WNW 9 9 5 5 1021.4 - 0.0
16/01:00am 10.7 9.1 7.9 83 1.4 WNW 6 7 3 4 1021.5 - 0.0
16/12:30am 10.8 9.6 8.0 83 1.4 NNW 4 6 2 3 1021.5 - 0.0
16/12:00am 11.1 9.3 8.1 82 1.5 ENE 7 9 4 5 1021.3 1021.2 0.0
 
Date/Time
CST
Tmp

°C
App
Tmp
°C
Dew
Point
°C
Rel
Hum
%
Delta-T

°C
Wind Press
QNH
hPa
Press
MSL
hPa
Rain
since
9 am
mm
Dir
 
Spd
km/h
Gust
km/h
Spd
kts
Gust
kts
15/11:30pm 12.7 11.5 9.5 81 1.6 SSE 6 11 3 6 1021.6 - 0.0
15/11:00pm 11.0 9.4 7.9 81 1.5 N 6 7 3 4 1021.7 - 0.0
15/10:30pm 12.7 12.4 8.8 77 2.0 CALM 0 0 0 0 1021.9 - 0.0
15/10:00pm 13.9 12.7 8.1 68 2.9 ESE 4 7 2 4 1022.2 - 0.0
15/09:30pm 15.2 13.6 8.7 65 3.3 ESE 7 9 4 5 1022.2 - 0.0
15/09:00pm 15.9 14.3 8.9 63 3.6 ESE 7 11 4 6 1022.1 1022.0 0.0
15/08:30pm 16.2 14.0 9.4 64 3.5 ESE 11 15 6 8 1021.9 - 0.0

Latest Capital City Observations: Canberra | Sydney | Melbourne | Brisbane | Adelaide | Perth | Hobart | Darwin

Other Formats:

Comma delimited format used in spreadsheet applications
http://www.bom.gov.au/fwo/IDS60901/IDS60901.95676.axf

JavaScript Object Notation format (JSON) in row-major order
http://www.bom.gov.au/fwo/IDS60901/IDS60901.95676.json